sensor_id;sensor_type;location;lat;lon;timestamp;P1;durP1;ratioP1;P2;durP2;ratioP2
20731;SDS011;10527;52.124;5.196;2023-10-08T00:01:19;13.27;;;3.45;;
20731;SDS011;10527;52.124;5.196;2023-10-08T00:03:49;16.50;;;4.65;;
20731;SDS011;10527;52.124;5.196;2023-10-08T00:06:26;12.55;;;4.72;;
20731;SDS011;10527;52.124;5.196;2023-10-08T00:08:54;15.20;;;4.10;;
20731;SDS011;10527;52.124;5.196;2023-10-08T00:11:27;14.63;;;3.60;;
20731;SDS011;10527;52.124;5.196;2023-10-08T00:13:57;18.85;;;5.35;;
20731;SDS011;10527;52.124;5.196;2023-10-08T00:16:27;10.77;;;3.33;;
20731;SDS011;10527;52.124;5.196;2023-10-08T00:18:54;17.95;;;4.50;;
20731;SDS011;10527;52.124;5.196;2023-10-08T00:21:26;11.38;;;3.63;;
20731;SDS011;10527;52.124;5.196;2023-10-08T00:23:54;10.95;;;4.22;;
20731;SDS011;10527;52.124;5.196;2023-10-08T00:26:25;12.25;;;3.50;;
20731;SDS011;10527;52.124;5.196;2023-10-08T00:28:59;11.40;;;4.10;;
20731;SDS011;10527;52.124;5.196;2023-10-08T00:31:27;11.20;;;3.35;;
20731;SDS011;10527;52.124;5.196;2023-10-08T00:34:04;13.98;;;3.55;;
20731;SDS011;10527;52.124;5.196;2023-10-08T00:36:40;12.75;;;3.65;;
20731;SDS011;10527;52.124;5.196;2023-10-08T00:39:12;13.73;;;3.60;;
20731;SDS011;10527;52.124;5.196;2023-10-08T00:41:41;12.27;;;3.80;;
20731;SDS011;10527;52.124;5.196;2023-10-08T00:44:23;8.35;;;3.20;;
20731;SDS011;10527;52.124;5.196;2023-10-08T00:46:56;11.25;;;3.67;;
20731;SDS011;10527;52.124;5.196;2023-10-08T00:49:30;9.55;;;3.03;;
20731;SDS011;10527;52.124;5.196;2023-10-08T00:52:08;19.15;;;3.95;;
20731;SDS011;10527;52.124;5.196;2023-10-08T00:54:36;11.93;;;3.70;;
20731;SDS011;10527;52.124;5.196;2023-10-08T00:57:27;10.43;;;3.30;;
20731;SDS011;10527;52.124;5.196;2023-10-08T00:59:56;9.80;;;3.35;;
20731;SDS011;10527;52.124;5.196;2023-10-08T01:02:25;7.45;;;3.10;;
20731;SDS011;10527;52.124;5.196;2023-10-08T01:05:15;9.93;;;2.72;;
20731;SDS011;10527;52.124;5.196;2023-10-08T01:07:52;10.55;;;3.30;;
20731;SDS011;10527;52.124;5.196;2023-10-08T01:10:21;8.80;;;3.58;;
20731;SDS011;10527;52.124;5.196;2023-10-08T01:12:51;14.50;;;5.60;;
20731;SDS011;10527;52.124;5.196;2023-10-08T01:15:21;14.57;;;3.90;;
20731;SDS011;10527;52.124;5.196;2023-10-08T01:18:08;9.73;;;3.97;;
20731;SDS011;10527;52.124;5.196;2023-10-08T01:20:44;16.45;;;4.18;;
20731;SDS011;10527;52.124;5.196;2023-10-08T01:23:18;15.95;;;4.43;;
20731;SDS011;10527;52.124;5.196;2023-10-08T01:25:53;10.55;;;3.88;;
20731;SDS011;10527;52.124;5.196;2023-10-08T01:28:41;13.23;;;3.45;;
20731;SDS011;10527;52.124;5.196;2023-10-08T01:31:10;16.98;;;4.93;;
20731;SDS011;10527;52.124;5.196;2023-10-08T01:33:39;13.23;;;3.92;;
20731;SDS011;10527;52.124;5.196;2023-10-08T01:36:16;14.75;;;4.32;;
20731;SDS011;10527;52.124;5.196;2023-10-08T01:38:44;13.05;;;4.10;;
20731;SDS011;10527;52.124;5.196;2023-10-08T01:41:16;13.20;;;4.00;;
20731;SDS011;10527;52.124;5.196;2023-10-08T01:43:48;12.02;;;4.07;;
20731;SDS011;10527;52.124;5.196;2023-10-08T01:46:16;10.98;;;4.03;;
20731;SDS011;10527;52.124;5.196;2023-10-08T01:48:43;10.93;;;3.80;;
20731;SDS011;10527;52.124;5.196;2023-10-08T01:51:11;9.50;;;4.07;;
20731;SDS011;10527;52.124;5.196;2023-10-08T01:53:52;9.43;;;3.20;;
20731;SDS011;10527;52.124;5.196;2023-10-08T01:56:25;12.30;;;3.90;;
20731;SDS011;10527;52.124;5.196;2023-10-08T01:58:53;12.60;;;3.50;;
20731;SDS011;10527;52.124;5.196;2023-10-08T02:01:22;12.00;;;4.28;;
20731;SDS011;10527;52.124;5.196;2023-10-08T02:03:49;11.57;;;4.10;;
20731;SDS011;10527;52.124;5.196;2023-10-08T02:06:21;12.40;;;4.18;;
20731;SDS011;10527;52.124;5.196;2023-10-08T02:08:51;12.85;;;3.85;;
20731;SDS011;10527;52.124;5.196;2023-10-08T02:11:19;13.60;;;4.30;;
20731;SDS011;10527;52.124;5.196;2023-10-08T02:13:47;15.70;;;4.28;;
20731;SDS011;10527;52.124;5.196;2023-10-08T02:16:20;11.85;;;4.13;;
20731;SDS011;10527;52.124;5.196;2023-10-08T02:18:48;13.80;;;4.13;;
20731;SDS011;10527;52.124;5.196;2023-10-08T02:21:17;13.02;;;3.75;;
20731;SDS011;10527;52.124;5.196;2023-10-08T02:23:44;14.00;;;4.40;;
20731;SDS011;10527;52.124;5.196;2023-10-08T02:26:12;10.35;;;3.80;;
20731;SDS011;10527;52.124;5.196;2023-10-08T02:28:41;14.27;;;3.88;;
20731;SDS011;10527;52.124;5.196;2023-10-08T02:31:11;12.52;;;4.85;;
20731;SDS011;10527;52.124;5.196;2023-10-08T02:33:38;7.75;;;3.40;;
20731;SDS011;10527;52.124;5.196;2023-10-08T02:36:05;10.48;;;3.88;;
20731;SDS011;10527;52.124;5.196;2023-10-08T02:38:33;11.25;;;4.28;;
20731;SDS011;10527;52.124;5.196;2023-10-08T02:41:04;13.50;;;4.13;;
20731;SDS011;10527;52.124;5.196;2023-10-08T02:43:34;14.15;;;4.50;;
20731;SDS011;10527;52.124;5.196;2023-10-08T02:46:02;10.25;;;3.47;;
20731;SDS011;10527;52.124;5.196;2023-10-08T02:48:33;14.25;;;3.92;;
20731;SDS011;10527;52.124;5.196;2023-10-08T02:51:01;11.75;;;3.88;;
20731;SDS011;10527;52.124;5.196;2023-10-08T02:53:34;11.70;;;4.60;;
20731;SDS011;10527;52.124;5.196;2023-10-08T02:56:01;13.02;;;4.25;;
20731;SDS011;10527;52.124;5.196;2023-10-08T02:58:39;10.77;;;4.65;;
20731;SDS011;10527;52.124;5.196;2023-10-08T03:01:07;10.15;;;4.05;;
20731;SDS011;10527;52.124;5.196;2023-10-08T03:03:39;10.25;;;3.72;;
20731;SDS011;10527;52.124;5.196;2023-10-08T03:06:08;12.07;;;3.63;;
20731;SDS011;10527;52.124;5.196;2023-10-08T03:08:38;10.95;;;4.28;;
20731;SDS011;10527;52.124;5.196;2023-10-08T03:11:11;11.35;;;4.15;;
20731;SDS011;10527;52.124;5.196;2023-10-08T03:13:44;10.88;;;3.58;;
20731;SDS011;10527;52.124;5.196;2023-10-08T03:16:18;11.02;;;3.63;;
20731;SDS011;10527;52.124;5.196;2023-10-08T03:18:53;13.40;;;4.72;;
20731;SDS011;10527;52.124;5.196;2023-10-08T03:21:23;8.38;;;3.42;;
20731;SDS011;10527;52.124;5.196;2023-10-08T03:24:15;10.48;;;3.08;;
20731;SDS011;10527;52.124;5.196;2023-10-08T03:27:01;8.68;;;3.33;;
20731;SDS011;10527;52.124;5.196;2023-10-08T03:29:46;13.15;;;4.28;;
20731;SDS011;10527;52.124;5.196;2023-10-08T03:32:14;11.75;;;4.05;;
20731;SDS011;10527;52.124;5.196;2023-10-08T03:34:47;11.00;;;3.92;;
20731;SDS011;10527;52.124;5.196;2023-10-08T03:37:20;10.48;;;4.25;;
20731;SDS011;10527;52.124;5.196;2023-10-08T03:39:55;9.48;;;4.25;;
20731;SDS011;10527;52.124;5.196;2023-10-08T03:42:26;10.20;;;3.78;;
20731;SDS011;10527;52.124;5.196;2023-10-08T03:45:14;8.48;;;3.50;;
20731;SDS011;10527;52.124;5.196;2023-10-08T03:47:49;11.30;;;4.57;;
20731;SDS011;10527;52.124;5.196;2023-10-08T03:50:36;11.95;;;4.85;;
20731;SDS011;10527;52.124;5.196;2023-10-08T03:53:09;11.40;;;4.32;;
20731;SDS011;10527;52.124;5.196;2023-10-08T03:55:39;12.82;;;4.75;;
20731;SDS011;10527;52.124;5.196;2023-10-08T03:58:09;11.43;;;4.32;;
20731;SDS011;10527;52.124;5.196;2023-10-08T04:00:45;13.98;;;4.13;;
20731;SDS011;10527;52.124;5.196;2023-10-08T04:03:12;14.93;;;4.68;;
20731;SDS011;10527;52.124;5.196;2023-10-08T04:05:50;10.98;;;4.45;;
20731;SDS011;10527;52.124;5.196;2023-10-08T04:08:40;14.20;;;5.32;;
20731;SDS011;10527;52.124;5.196;2023-10-08T04:11:22;13.57;;;5.00;;
20731;SDS011;10527;52.124;5.196;2023-10-08T04:14:02;17.08;;;6.00;;
20731;SDS011;10527;52.124;5.196;2023-10-08T04:16:30;11.52;;;4.45;;
20731;SDS011;10527;52.124;5.196;2023-10-08T04:19:06;8.00;;;4.05;;
20731;SDS011;10527;52.124;5.196;2023-10-08T04:21:36;16.90;;;4.97;;
20731;SDS011;10527;52.124;5.196;2023-10-08T04:24:07;11.65;;;4.85;;
20731;SDS011;10527;52.124;5.196;2023-10-08T04:26:35;12.52;;;5.03;;
20731;SDS011;10527;52.124;5.196;2023-10-08T04:29:04;15.05;;;4.68;;
20731;SDS011;10527;52.124;5.196;2023-10-08T04:31:35;10.25;;;4.10;;
20731;SDS011;10527;52.124;5.196;2023-10-08T04:34:10;8.18;;;4.35;;
20731;SDS011;10527;52.124;5.196;2023-10-08T04:36:43;9.63;;;4.28;;
20731;SDS011;10527;52.124;5.196;2023-10-08T04:39:13;9.85;;;3.92;;
20731;SDS011;10527;52.124;5.196;2023-10-08T04:41:48;7.30;;;3.25;;
20731;SDS011;10527;52.124;5.196;2023-10-08T04:44:23;11.00;;;3.05;;
20731;SDS011;10527;52.124;5.196;2023-10-08T04:46:52;10.20;;;4.20;;
20731;SDS011;10527;52.124;5.196;2023-10-08T04:49:21;6.00;;;3.05;;
20731;SDS011;10527;52.124;5.196;2023-10-08T04:51:55;9.90;;;3.33;;
20731;SDS011;10527;52.124;5.196;2023-10-08T04:54:27;5.80;;;2.67;;
20731;SDS011;10527;52.124;5.196;2023-10-08T04:57:00;12.02;;;3.67;;
20731;SDS011;10527;52.124;5.196;2023-10-08T04:59:32;18.80;;;3.78;;
20731;SDS011;10527;52.124;5.196;2023-10-08T05:02:03;10.05;;;3.08;;
20731;SDS011;10527;52.124;5.196;2023-10-08T05:04:49;6.93;;;2.72;;
20731;SDS011;10527;52.124;5.196;2023-10-08T05:07:17;10.95;;;2.42;;
20731;SDS011;10527;52.124;5.196;2023-10-08T05:10:04;6.55;;;1.85;;
20731;SDS011;10527;52.124;5.196;2023-10-08T05:12:33;10.43;;;2.05;;
20731;SDS011;10527;52.124;5.196;2023-10-08T05:15:04;9.45;;;2.03;;
20731;SDS011;10527;52.124;5.196;2023-10-08T05:17:41;6.10;;;1.77;;
20731;SDS011;10527;52.124;5.196;2023-10-08T05:20:33;4.05;;;1.50;;
20731;SDS011;10527;52.124;5.196;2023-10-08T05:23:19;4.35;;;1.80;;
20731;SDS011;10527;52.124;5.196;2023-10-08T05:26:07;4.38;;;1.65;;
20731;SDS011;10527;52.124;5.196;2023-10-08T05:28:35;6.60;;;2.45;;
20731;SDS011;10527;52.124;5.196;2023-10-08T05:34:10;7.22;;;2.20;;
20731;SDS011;10527;52.124;5.196;2023-10-08T05:36:41;5.20;;;1.60;;
20731;SDS011;10527;52.124;5.196;2023-10-08T05:39:37;5.43;;;1.80;;
20731;SDS011;10527;52.124;5.196;2023-10-08T05:42:04;3.13;;;1.90;;
20731;SDS011;10527;52.124;5.196;2023-10-08T05:45:05;5.25;;;1.90;;
20731;SDS011;10527;52.124;5.196;2023-10-08T05:47:37;6.80;;;1.90;;
20731;SDS011;10527;52.124;5.196;2023-10-08T05:50:07;4.43;;;1.52;;
20731;SDS011;10527;52.124;5.196;2023-10-08T05:52:44;4.43;;;1.83;;
20731;SDS011;10527;52.124;5.196;2023-10-08T05:55:25;4.05;;;1.80;;
20731;SDS011;10527;52.124;5.196;2023-10-08T05:58:04;4.13;;;1.88;;
20731;SDS011;10527;52.124;5.196;2023-10-08T06:00:44;8.23;;;2.08;;
20731;SDS011;10527;52.124;5.196;2023-10-08T06:03:32;5.60;;;2.28;;
20731;SDS011;10527;52.124;5.196;2023-10-08T06:06:08;5.53;;;2.15;;
20731;SDS011;10527;52.124;5.196;2023-10-08T06:08:42;5.45;;;2.08;;
20731;SDS011;10527;52.124;5.196;2023-10-08T06:11:18;7.65;;;2.13;;
20731;SDS011;10527;52.124;5.196;2023-10-08T06:14:04;8.90;;;1.80;;
20731;SDS011;10527;52.124;5.196;2023-10-08T06:17:10;4.25;;;1.80;;
20731;SDS011;10527;52.124;5.196;2023-10-08T06:19:51;7.60;;;1.67;;
20731;SDS011;10527;52.124;5.196;2023-10-08T06:27:50;4.28;;;1.48;;
20731;SDS011;10527;52.124;5.196;2023-10-08T06:30:22;6.07;;;2.00;;
20731;SDS011;10527;52.124;5.196;2023-10-08T06:32:56;3.28;;;1.65;;
20731;SDS011;10527;52.124;5.196;2023-10-08T06:35:23;4.18;;;1.58;;
20731;SDS011;10527;52.124;5.196;2023-10-08T06:37:53;8.23;;;2.33;;
20731;SDS011;10527;52.124;5.196;2023-10-08T06:40:21;5.97;;;1.92;;
20731;SDS011;10527;52.124;5.196;2023-10-08T06:43:18;5.82;;;1.88;;
20731;SDS011;10527;52.124;5.196;2023-10-08T06:45:53;4.60;;;1.83;;
20731;SDS011;10527;52.124;5.196;2023-10-08T06:48:24;5.20;;;1.67;;
20731;SDS011;10527;52.124;5.196;2023-10-08T06:50:56;5.38;;;1.52;;
20731;SDS011;10527;52.124;5.196;2023-10-08T06:53:26;6.45;;;1.50;;
20731;SDS011;10527;52.124;5.196;2023-10-08T06:55:56;3.45;;;1.40;;
20731;SDS011;10527;52.124;5.196;2023-10-08T06:58:23;4.50;;;1.15;;
20731;SDS011;10527;52.124;5.196;2023-10-08T07:00:51;6.25;;;1.67;;
20731;SDS011;10527;52.124;5.196;2023-10-08T07:03:18;6.18;;;1.33;;
20731;SDS011;10527;52.124;5.196;2023-10-08T07:05:48;3.45;;;1.25;;
20731;SDS011;10527;52.124;5.196;2023-10-08T07:08:30;5.13;;;1.45;;
20731;SDS011;10527;52.124;5.196;2023-10-08T07:10:59;2.35;;;0.90;;
20731;SDS011;10527;52.124;5.196;2023-10-08T07:13:34;6.93;;;2.28;;
20731;SDS011;10527;52.124;5.196;2023-10-08T07:16:03;3.00;;;1.10;;
20731;SDS011;10527;52.124;5.196;2023-10-08T07:18:38;2.70;;;0.95;;
20731;SDS011;10527;52.124;5.196;2023-10-08T07:21:05;2.80;;;0.80;;
20731;SDS011;10527;52.124;5.196;2023-10-08T07:23:45;2.28;;;0.88;;
20731;SDS011;10527;52.124;5.196;2023-10-08T07:26:30;2.95;;;0.73;;
20731;SDS011;10527;52.124;5.196;2023-10-08T07:29:04;3.33;;;1.00;;
20731;SDS011;10527;52.124;5.196;2023-10-08T07:31:36;3.10;;;0.95;;
20731;SDS011;10527;52.124;5.196;2023-10-08T07:34:19;2.97;;;0.80;;
20731;SDS011;10527;52.124;5.196;2023-10-08T07:36:50;1.75;;;0.80;;
20731;SDS011;10527;52.124;5.196;2023-10-08T07:39:19;2.88;;;1.15;;
20731;SDS011;10527;52.124;5.196;2023-10-08T07:41:51;1.70;;;1.00;;
20731;SDS011;10527;52.124;5.196;2023-10-08T07:44:24;1.67;;;0.82;;
20731;SDS011;10527;52.124;5.196;2023-10-08T07:46:54;1.92;;;0.60;;
20731;SDS011;10527;52.124;5.196;2023-10-08T07:49:22;1.00;;;0.77;;
20731;SDS011;10527;52.124;5.196;2023-10-08T07:51:56;2.58;;;0.60;;
20731;SDS011;10527;52.124;5.196;2023-10-08T07:54:25;2.75;;;0.70;;
20731;SDS011;10527;52.124;5.196;2023-10-08T07:56:54;6.15;;;0.80;;
20731;SDS011;10527;52.124;5.196;2023-10-08T07:59:35;1.83;;;0.80;;
20731;SDS011;10527;52.124;5.196;2023-10-08T08:02:08;0.95;;;0.77;;
20731;SDS011;10527;52.124;5.196;2023-10-08T08:04:39;1.20;;;0.90;;
20731;SDS011;10527;52.124;5.196;2023-10-08T08:07:11;2.05;;;1.40;;
20731;SDS011;10527;52.124;5.196;2023-10-08T08:09:46;1.10;;;0.88;;
20731;SDS011;10527;52.124;5.196;2023-10-08T08:12:19;2.15;;;1.30;;
20731;SDS011;10527;52.124;5.196;2023-10-08T08:14:51;1.45;;;0.95;;
20731;SDS011;10527;52.124;5.196;2023-10-08T08:17:19;1.40;;;0.90;;
20731;SDS011;10527;52.124;5.196;2023-10-08T08:19:49;2.05;;;1.20;;
20731;SDS011;10527;52.124;5.196;2023-10-08T08:22:18;2.30;;;1.33;;
20731;SDS011;10527;52.124;5.196;2023-10-08T08:24:57;2.03;;;1.30;;
20731;SDS011;10527;52.124;5.196;2023-10-08T08:27:43;2.35;;;1.00;;
20731;SDS011;10527;52.124;5.196;2023-10-08T08:30:13;0.93;;;0.80;;
20731;SDS011;10527;52.124;5.196;2023-10-08T08:32:43;1.25;;;0.90;;
20731;SDS011;10527;52.124;5.196;2023-10-08T08:35:19;3.45;;;1.00;;
20731;SDS011;10527;52.124;5.196;2023-10-08T08:37:46;1.50;;;0.80;;
20731;SDS011;10527;52.124;5.196;2023-10-08T08:40:21;1.50;;;1.10;;
20731;SDS011;10527;52.124;5.196;2023-10-08T08:42:49;2.50;;;1.33;;
20731;SDS011;10527;52.124;5.196;2023-10-08T08:45:19;2.05;;;1.10;;
20731;SDS011;10527;52.124;5.196;2023-10-08T08:47:48;1.58;;;0.98;;
20731;SDS011;10527;52.124;5.196;2023-10-08T08:50:16;2.78;;;1.40;;
20731;SDS011;10527;52.124;5.196;2023-10-08T08:52:44;3.10;;;2.05;;
20731;SDS011;10527;52.124;5.196;2023-10-08T08:55:12;2.67;;;1.63;;
20731;SDS011;10527;52.124;5.196;2023-10-08T08:57:44;10.18;;;2.20;;
20731;SDS011;10527;52.124;5.196;2023-10-08T09:00:17;2.00;;;1.63;;
20731;SDS011;10527;52.124;5.196;2023-10-08T09:02:46;2.28;;;1.20;;
20731;SDS011;10527;52.124;5.196;2023-10-08T09:05:16;1.75;;;1.20;;
20731;SDS011;10527;52.124;5.196;2023-10-08T09:07:54;2.42;;;1.40;;
20731;SDS011;10527;52.124;5.196;2023-10-08T09:10:23;3.92;;;2.42;;
20731;SDS011;10527;52.124;5.196;2023-10-08T09:12:58;3.15;;;1.55;;
20731;SDS011;10527;52.124;5.196;2023-10-08T09:15:26;2.33;;;1.38;;
20731;SDS011;10527;52.124;5.196;2023-10-08T09:17:54;1.55;;;1.30;;
20731;SDS011;10527;52.124;5.196;2023-10-08T09:20:42;2.25;;;1.48;;
20731;SDS011;10527;52.124;5.196;2023-10-08T09:23:16;2.17;;;1.33;;
20731;SDS011;10527;52.124;5.196;2023-10-08T09:25:48;2.28;;;1.20;;
20731;SDS011;10527;52.124;5.196;2023-10-08T09:28:16;2.03;;;1.10;;
20731;SDS011;10527;52.124;5.196;2023-10-08T09:30:44;3.03;;;1.20;;
20731;SDS011;10527;52.124;5.196;2023-10-08T09:33:14;1.90;;;1.00;;
20731;SDS011;10527;52.124;5.196;2023-10-08T09:35:44;1.73;;;1.05;;
20731;SDS011;10527;52.124;5.196;2023-10-08T09:38:12;1.88;;;1.30;;
20731;SDS011;10527;52.124;5.196;2023-10-08T09:40:50;4.93;;;1.90;;
20731;SDS011;10527;52.124;5.196;2023-10-08T09:43:19;2.22;;;1.27;;
20731;SDS011;10527;52.124;5.196;2023-10-08T09:45:54;1.83;;;1.20;;
20731;SDS011;10527;52.124;5.196;2023-10-08T09:48:32;3.30;;;1.65;;
20731;SDS011;10527;52.124;5.196;2023-10-08T09:51:07;2.38;;;1.50;;
20731;SDS011;10527;52.124;5.196;2023-10-08T09:56:31;4.10;;;0.90;;
20731;SDS011;10527;52.124;5.196;2023-10-08T09:59:00;2.60;;;1.25;;
20731;SDS011;10527;52.124;5.196;2023-10-08T10:01:27;2.47;;;1.60;;
20731;SDS011;10527;52.124;5.196;2023-10-08T10:03:58;1.92;;;1.40;;
20731;SDS011;10527;52.124;5.196;2023-10-08T10:06:26;1.65;;;1.02;;
20731;SDS011;10527;52.124;5.196;2023-10-08T10:09:02;1.35;;;1.00;;
20731;SDS011;10527;52.124;5.196;2023-10-08T10:11:53;2.92;;;1.35;;
20731;SDS011;10527;52.124;5.196;2023-10-08T10:14:21;1.70;;;1.10;;
20731;SDS011;10527;52.124;5.196;2023-10-08T10:19:59;2.80;;;1.30;;
20731;SDS011;10527;52.124;5.196;2023-10-08T10:22:28;2.97;;;1.55;;
20731;SDS011;10527;52.124;5.196;2023-10-08T10:24:57;1.60;;;1.10;;
20731;SDS011;10527;52.124;5.196;2023-10-08T10:27:26;2.00;;;1.30;;
20731;SDS011;10527;52.124;5.196;2023-10-08T10:30:00;2.90;;;1.08;;
20731;SDS011;10527;52.124;5.196;2023-10-08T10:32:35;1.83;;;1.20;;
20731;SDS011;10527;52.124;5.196;2023-10-08T10:35:04;1.38;;;1.10;;
20731;SDS011;10527;52.124;5.196;2023-10-08T10:37:32;1.55;;;1.13;;
20731;SDS011;10527;52.124;5.196;2023-10-08T10:40:21;2.05;;;1.42;;
20731;SDS011;10527;52.124;5.196;2023-10-08T10:43:07;1.63;;;1.13;;
20731;SDS011;10527;52.124;5.196;2023-10-08T10:45:42;2.80;;;1.45;;
20731;SDS011;10527;52.124;5.196;2023-10-08T10:48:11;2.78;;;1.52;;
20731;SDS011;10527;52.124;5.196;2023-10-08T10:50:58;2.60;;;1.30;;
20731;SDS011;10527;52.124;5.196;2023-10-08T10:53:33;1.75;;;1.10;;
20731;SDS011;10527;52.124;5.196;2023-10-08T10:56:19;2.60;;;1.25;;
20731;SDS011;10527;52.124;5.196;2023-10-08T10:58:59;1.77;;;1.30;;
20731;SDS011;10527;52.124;5.196;2023-10-08T11:01:44;2.35;;;1.40;;
20731;SDS011;10527;52.124;5.196;2023-10-08T11:04:18;2.22;;;1.70;;
20731;SDS011;10527;52.124;5.196;2023-10-08T11:06:55;2.58;;;1.45;;
20731;SDS011;10527;52.124;5.196;2023-10-08T11:09:25;2.20;;;1.25;;
20731;SDS011;10527;52.124;5.196;2023-10-08T11:12:08;2.17;;;1.42;;
20731;SDS011;10527;52.124;5.196;2023-10-08T11:14:42;2.47;;;1.60;;
20731;SDS011;10527;52.124;5.196;2023-10-08T11:17:12;1.70;;;1.23;;
20731;SDS011;10527;52.124;5.196;2023-10-08T11:19:42;1.98;;;1.70;;
20731;SDS011;10527;52.124;5.196;2023-10-08T11:22:12;1.98;;;1.40;;
20731;SDS011;10527;52.124;5.196;2023-10-08T11:24:43;5.82;;;1.63;;
20731;SDS011;10527;52.124;5.196;2023-10-08T11:27:16;1.90;;;1.50;;
20731;SDS011;10527;52.124;5.196;2023-10-08T11:29:55;4.07;;;1.98;;
20731;SDS011;10527;52.124;5.196;2023-10-08T11:32:24;15.00;;;2.20;;
20731;SDS011;10527;52.124;5.196;2023-10-08T11:34:56;3.70;;;1.90;;
20731;SDS011;10527;52.124;5.196;2023-10-08T11:37:30;2.85;;;1.85;;
20731;SDS011;10527;52.124;5.196;2023-10-08T11:40:02;3.95;;;2.85;;
20731;SDS011;10527;52.124;5.196;2023-10-08T11:42:43;5.13;;;2.97;;
20731;SDS011;10527;52.124;5.196;2023-10-08T11:45:11;4.28;;;2.03;;
20731;SDS011;10527;52.124;5.196;2023-10-08T11:47:45;3.58;;;2.05;;
20731;SDS011;10527;52.124;5.196;2023-10-08T11:50:18;3.22;;;1.92;;
20731;SDS011;10527;52.124;5.196;2023-10-08T11:52:46;4.85;;;2.20;;
20731;SDS011;10527;52.124;5.196;2023-10-08T11:55:13;2.40;;;2.13;;
20731;SDS011;10527;52.124;5.196;2023-10-08T11:57:48;4.70;;;2.55;;
20731;SDS011;10527;52.124;5.196;2023-10-08T12:00:16;3.92;;;2.75;;
20731;SDS011;10527;52.124;5.196;2023-10-08T12:02:49;4.47;;;2.33;;
20731;SDS011;10527;52.124;5.196;2023-10-08T12:05:20;3.10;;;2.72;;
20731;SDS011;10527;52.124;5.196;2023-10-08T12:07:51;3.53;;;2.90;;
20731;SDS011;10527;52.124;5.196;2023-10-08T12:10:23;3.88;;;2.75;;
20731;SDS011;10527;52.124;5.196;2023-10-08T12:12:51;5.55;;;3.35;;
20731;SDS011;10527;52.124;5.196;2023-10-08T12:15:22;4.30;;;2.78;;
20731;SDS011;10527;52.124;5.196;2023-10-08T12:18:00;3.45;;;2.33;;
20731;SDS011;10527;52.124;5.196;2023-10-08T12:20:51;3.58;;;2.55;;
20731;SDS011;10527;52.124;5.196;2023-10-08T12:23:20;4.22;;;2.05;;
20731;SDS011;10527;52.124;5.196;2023-10-08T12:26:00;3.17;;;2.53;;
20731;SDS011;10527;52.124;5.196;2023-10-08T12:28:29;3.78;;;2.60;;
20731;SDS011;10527;52.124;5.196;2023-10-08T12:30:58;3.30;;;2.60;;
20731;SDS011;10527;52.124;5.196;2023-10-08T12:33:27;4.13;;;2.22;;
20731;SDS011;10527;52.124;5.196;2023-10-08T12:35:56;3.30;;;2.33;;
20731;SDS011;10527;52.124;5.196;2023-10-08T12:38:24;2.83;;;1.90;;
20731;SDS011;10527;52.124;5.196;2023-10-08T12:40:54;3.40;;;2.10;;
20731;SDS011;10527;52.124;5.196;2023-10-08T12:43:22;3.42;;;2.22;;
20731;SDS011;10527;52.124;5.196;2023-10-08T12:45:54;3.90;;;2.10;;
20731;SDS011;10527;52.124;5.196;2023-10-08T12:48:29;3.75;;;1.88;;
20731;SDS011;10527;52.124;5.196;2023-10-08T12:50:56;4.88;;;1.88;;
20731;SDS011;10527;52.124;5.196;2023-10-08T12:53:24;3.03;;;1.52;;
20731;SDS011;10527;52.124;5.196;2023-10-08T12:55:54;4.57;;;1.60;;
20731;SDS011;10527;52.124;5.196;2023-10-08T12:58:25;1.27;;;0.90;;
20731;SDS011;10527;52.124;5.196;2023-10-08T13:00:56;6.30;;;1.40;;
20731;SDS011;10527;52.124;5.196;2023-10-08T13:03:24;2.53;;;1.40;;
20731;SDS011;10527;52.124;5.196;2023-10-08T13:05:56;3.97;;;1.73;;
20731;SDS011;10527;52.124;5.196;2023-10-08T13:08:30;2.88;;;1.15;;
20731;SDS011;10527;52.124;5.196;2023-10-08T13:11:00;2.15;;;1.17;;
20731;SDS011;10527;52.124;5.196;2023-10-08T13:13:28;4.30;;;1.48;;
20731;SDS011;10527;52.124;5.196;2023-10-08T13:15:55;4.97;;;1.40;;
20731;SDS011;10527;52.124;5.196;2023-10-08T13:18:26;2.45;;;1.10;;
20731;SDS011;10527;52.124;5.196;2023-10-08T13:20:53;2.33;;;1.23;;
20731;SDS011;10527;52.124;5.196;2023-10-08T13:23:21;3.85;;;1.40;;
20731;SDS011;10527;52.124;5.196;2023-10-08T13:25:50;2.42;;;1.10;;
20731;SDS011;10527;52.124;5.196;2023-10-08T13:28:21;4.55;;;1.20;;
20731;SDS011;10527;52.124;5.196;2023-10-08T13:30:49;4.55;;;1.13;;
20731;SDS011;10527;52.124;5.196;2023-10-08T13:33:19;5.88;;;1.50;;
20731;SDS011;10527;52.124;5.196;2023-10-08T13:35:49;3.13;;;1.17;;
20731;SDS011;10527;52.124;5.196;2023-10-08T13:38:32;2.97;;;1.52;;
20731;SDS011;10527;52.124;5.196;2023-10-08T13:41:01;3.90;;;1.48;;
20731;SDS011;10527;52.124;5.196;2023-10-08T13:43:30;2.45;;;1.10;;
20731;SDS011;10527;52.124;5.196;2023-10-08T13:46:28;2.70;;;1.33;;
20731;SDS011;10527;52.124;5.196;2023-10-08T13:48:57;2.63;;;1.27;;
20731;SDS011;10527;52.124;5.196;2023-10-08T13:51:24;5.05;;;1.30;;
20731;SDS011;10527;52.124;5.196;2023-10-08T13:53:54;2.00;;;1.23;;
20731;SDS011;10527;52.124;5.196;2023-10-08T13:56:38;3.72;;;2.13;;
20731;SDS011;10527;52.124;5.196;2023-10-08T13:59:08;1.80;;;1.00;;
20731;SDS011;10527;52.124;5.196;2023-10-08T14:01:40;5.80;;;1.50;;
20731;SDS011;10527;52.124;5.196;2023-10-08T14:04:18;7.10;;;1.73;;
20731;SDS011;10527;52.124;5.196;2023-10-08T14:06:47;4.05;;;1.20;;
20731;SDS011;10527;52.124;5.196;2023-10-08T14:09:18;3.47;;;1.27;;
20731;SDS011;10527;52.124;5.196;2023-10-08T14:11:48;3.05;;;1.08;;
20731;SDS011;10527;52.124;5.196;2023-10-08T14:14:19;4.28;;;1.50;;
20731;SDS011;10527;52.124;5.196;2023-10-08T14:16:52;2.67;;;1.15;;
20731;SDS011;10527;52.124;5.196;2023-10-08T14:19:20;2.65;;;1.20;;
20731;SDS011;10527;52.124;5.196;2023-10-08T14:21:55;2.13;;;1.20;;
20731;SDS011;10527;52.124;5.196;2023-10-08T14:24:30;2.85;;;1.15;;
20731;SDS011;10527;52.124;5.196;2023-10-08T14:27:01;2.55;;;1.10;;
20731;SDS011;10527;52.124;5.196;2023-10-08T14:29:37;2.65;;;1.42;;
20731;SDS011;10527;52.124;5.196;2023-10-08T14:32:07;3.67;;;1.33;;
20731;SDS011;10527;52.124;5.196;2023-10-08T14:34:35;3.72;;;1.27;;
20731;SDS011;10527;52.124;5.196;2023-10-08T14:37:09;1.90;;;1.20;;
20731;SDS011;10527;52.124;5.196;2023-10-08T14:39:56;2.60;;;0.98;;
20731;SDS011;10527;52.124;5.196;2023-10-08T14:42:42;2.75;;;1.05;;
20731;SDS011;10527;52.124;5.196;2023-10-08T14:45:31;3.72;;;1.17;;
20731;SDS011;10527;52.124;5.196;2023-10-08T14:48:07;4.88;;;1.60;;
20731;SDS011;10527;52.124;5.196;2023-10-08T14:50:38;2.55;;;1.15;;
20731;SDS011;10527;52.124;5.196;2023-10-08T14:53:07;3.63;;;1.08;;
20731;SDS011;10527;52.124;5.196;2023-10-08T14:55:37;4.57;;;1.33;;
20731;SDS011;10527;52.124;5.196;2023-10-08T14:58:05;3.33;;;1.25;;
20731;SDS011;10527;52.124;5.196;2023-10-08T15:00:37;2.13;;;1.20;;
20731;SDS011;10527;52.124;5.196;2023-10-08T15:03:08;2.10;;;1.20;;
20731;SDS011;10527;52.124;5.196;2023-10-08T15:05:40;2.47;;;1.20;;
20731;SDS011;10527;52.124;5.196;2023-10-08T15:08:08;2.55;;;1.08;;
20731;SDS011;10527;52.124;5.196;2023-10-08T15:10:42;3.88;;;1.02;;
20731;SDS011;10527;52.124;5.196;2023-10-08T15:13:09;3.55;;;1.83;;
20731;SDS011;10527;52.124;5.196;2023-10-08T15:15:41;3.75;;;1.27;;
20731;SDS011;10527;52.124;5.196;2023-10-08T15:18:09;2.33;;;1.20;;
20731;SDS011;10527;52.124;5.196;2023-10-08T15:20:41;4.90;;;1.33;;
20731;SDS011;10527;52.124;5.196;2023-10-08T15:23:09;3.42;;;1.15;;
20731;SDS011;10527;52.124;5.196;2023-10-08T15:25:39;2.03;;;1.05;;
20731;SDS011;10527;52.124;5.196;2023-10-08T15:28:07;3.10;;;1.23;;
20731;SDS011;10527;52.124;5.196;2023-10-08T15:30:34;2.83;;;1.13;;
20731;SDS011;10527;52.124;5.196;2023-10-08T15:33:04;2.78;;;1.30;;